Ithaca College, New York
Current Conditions -  °F | °C
As of 10:56 PM on Sunday 23 Nov 2014 (Local Time) from KITH Reporting Station
Overcast Overcast  
Wind Chill: 50°   Ceiling: 2500
Heat Index: 50°   Visibility: 10mi
Dew Point: 34°   Wind: 12mph
Humidity: 54%   Direction: 140°SE
Pressure: 29.85"   Gusts: NA
Location:  42.432°N, 76.4974°W
Report Text: KITH 240356Z AUTO 14010KT 10SM BKN025 OVC041 10/01 A2985 RMK AO2 T01000011 SLP112
Loading
Personal Weather Stations






























Interactive Weather Map New forecast layout! Learn more

10-Day Weather Forecast

Advertisements
Track Severe Weather on mobile